createdAt,value
2023-08-17T00:00:21.368Z,1.40
2023-08-17T00:02:48.579Z,1.42
2023-08-17T00:05:16.097Z,1.55
2023-08-17T00:07:43.299Z,1.55
2023-08-17T00:10:10.744Z,1.48
2023-08-17T00:12:37.931Z,1.13
2023-08-17T00:15:05.294Z,1.13
2023-08-17T00:17:32.663Z,1.20
2023-08-17T00:19:59.810Z,1.30
2023-08-17T00:22:26.934Z,1.33
2023-08-17T00:24:54.138Z,1.27
2023-08-17T00:27:21.347Z,1.30
2023-08-17T00:29:48.478Z,1.20
2023-08-17T00:32:15.621Z,1.10
2023-08-17T00:34:42.759Z,0.98
2023-08-17T00:37:09.890Z,1.48
2023-08-17T00:39:37.573Z,1.40
2023-08-17T00:42:04.862Z,1.20
2023-08-17T00:44:32.004Z,1.20
2023-08-17T00:46:59.439Z,1.35
2023-08-17T00:49:26.697Z,1.15
2023-08-17T00:51:53.880Z,0.98
2023-08-17T00:54:25.254Z,1.25
2023-08-17T00:56:52.943Z,1.27
2023-08-17T00:59:20.150Z,1.30
2023-08-17T01:01:48.699Z,1.02
2023-08-17T01:04:15.963Z,1.23
2023-08-17T01:06:43.176Z,1.20
2023-08-17T01:09:10.629Z,1.30
2023-08-17T01:11:47.636Z,1.00
2023-08-17T01:14:26.738Z,1.70
2023-08-17T01:17:06.332Z,1.15
2023-08-17T01:19:34.349Z,0.93
2023-08-17T01:22:09.987Z,1.00
2023-08-17T01:24:37.148Z,1.13
2023-08-17T01:27:04.423Z,1.98
2023-08-17T01:29:31.525Z,1.02
2023-08-17T01:32:17.249Z,1.35
2023-08-17T01:34:51.344Z,1.02
2023-08-17T01:37:20.285Z,1.38
2023-08-17T01:39:50.085Z,1.05
2023-08-17T01:42:17.646Z,1.15
2023-08-17T01:44:44.869Z,1.27
2023-08-17T01:47:12.596Z,1.23
2023-08-17T01:49:40.519Z,1.08
2023-08-17T01:52:07.700Z,1.50
2023-08-17T01:54:34.939Z,1.20
2023-08-17T01:57:02.055Z,1.50
2023-08-17T01:59:29.193Z,0.93
2023-08-17T02:01:56.351Z,1.25
2023-08-17T02:04:23.619Z,1.50
2023-08-17T02:06:50.754Z,1.50
2023-08-17T02:09:17.892Z,1.42
2023-08-17T02:11:45.026Z,1.35
2023-08-17T02:14:12.148Z,1.45
2023-08-17T02:16:39.422Z,1.42
2023-08-17T02:19:06.804Z,1.38
2023-08-17T02:21:33.893Z,1.40
2023-08-17T02:24:01.074Z,1.10
2023-08-17T02:26:28.199Z,1.00
2023-08-17T02:28:55.358Z,0.98
2023-08-17T02:31:22.569Z,1.00
2023-08-17T02:33:50.203Z,1.30
2023-08-17T02:36:17.346Z,1.33
2023-08-17T02:38:44.621Z,0.98
2023-08-17T02:41:11.721Z,1.40
2023-08-17T02:43:38.884Z,1.45
2023-08-17T02:46:08.262Z,1.48
2023-08-17T02:48:35.640Z,1.00
2023-08-17T02:51:02.822Z,1.10
2023-08-17T02:53:30.010Z,1.08
2023-08-17T02:55:57.237Z,1.60
2023-08-17T02:58:24.327Z,1.35
2023-08-17T03:00:54.865Z,1.02
2023-08-17T03:03:22.113Z,1.10
2023-08-17T03:05:49.521Z,1.48
2023-08-17T03:08:16.688Z,1.85
2023-08-17T03:10:43.804Z,1.83
2023-08-17T03:13:11.006Z,1.10
2023-08-17T03:15:41.208Z,1.60
2023-08-17T03:18:08.538Z,1.20
2023-08-17T03:20:35.762Z,1.30
2023-08-17T03:23:02.998Z,1.10
2023-08-17T03:25:30.153Z,1.40
2023-08-17T03:27:57.303Z,1.27
2023-08-17T03:30:24.498Z,1.33
2023-08-17T03:32:51.717Z,1.40
2023-08-17T03:35:19.099Z,0.80
2023-08-17T03:37:46.596Z,1.30
2023-08-17T03:40:13.817Z,1.38
2023-08-17T03:42:42.625Z,1.38
2023-08-17T03:45:10.003Z,0.90
2023-08-17T03:47:37.169Z,1.20
2023-08-17T03:50:04.397Z,1.25
2023-08-17T03:52:31.533Z,0.70
2023-08-17T03:54:58.726Z,1.10
2023-08-17T03:57:26.093Z,1.10
2023-08-17T03:59:53.732Z,1.25
2023-08-17T04:02:20.950Z,0.93
2023-08-17T04:04:48.202Z,1.20
2023-08-17T04:07:22.083Z,1.00
2023-08-17T04:09:49.212Z,1.35
2023-08-17T04:12:16.382Z,1.30
2023-08-17T04:14:43.522Z,1.30
2023-08-17T04:17:10.717Z,1.48
2023-08-17T04:19:37.916Z,1.58
2023-08-17T04:22:05.403Z,1.50
2023-08-17T04:24:32.580Z,1.40
2023-08-17T04:26:59.720Z,1.52
2023-08-17T04:29:26.990Z,1.60
2023-08-17T04:31:54.933Z,1.27
2023-08-17T04:34:22.200Z,1.42
2023-08-17T04:36:49.455Z,1.27
2023-08-17T04:39:16.750Z,1.30
2023-08-17T04:41:43.967Z,1.60
2023-08-17T04:44:11.195Z,1.30
2023-08-17T04:46:38.386Z,1.40
2023-08-17T04:49:05.618Z,1.40
2023-08-17T04:51:32.768Z,1.25
2023-08-17T04:53:59.995Z,1.50
2023-08-17T04:56:27.954Z,1.70
2023-08-17T04:58:55.140Z,1.60
2023-08-17T05:01:22.331Z,1.70
2023-08-17T05:03:49.774Z,1.70
2023-08-17T05:06:17.188Z,1.65
2023-08-17T05:08:44.410Z,1.15
2023-08-17T05:11:11.724Z,1.88
2023-08-17T05:13:38.890Z,1.73
2023-08-17T05:16:06.540Z,1.38
2023-08-17T05:18:33.711Z,1.40
2023-08-17T05:21:01.435Z,2.13
2023-08-17T05:23:28.583Z,1.52
2023-08-17T05:25:55.956Z,1.70
2023-08-17T05:28:23.121Z,1.38
2023-08-17T05:30:50.843Z,2.25
2023-08-17T05:33:18.094Z,1.50
2023-08-17T05:35:45.285Z,1.30
2023-08-17T05:38:12.572Z,1.25
2023-08-17T05:40:39.731Z,1.30
2023-08-17T05:43:06.991Z,1.48
2023-08-17T05:45:37.842Z,1.40
2023-08-17T05:48:05.209Z,1.63
2023-08-17T05:50:32.537Z,1.30
2023-08-17T05:53:00.037Z,1.50
2023-08-17T05:55:27.720Z,1.23
2023-08-17T05:57:55.156Z,1.45
2023-08-17T06:00:23.157Z,1.50
2023-08-17T06:02:52.759Z,1.55
2023-08-17T06:05:20.476Z,1.30
2023-08-17T06:07:47.738Z,1.48
2023-08-17T06:10:15.252Z,1.35
2023-08-17T06:12:42.707Z,1.38
2023-08-17T06:15:11.980Z,1.42
2023-08-17T06:17:39.649Z,1.30
2023-08-17T06:20:10.889Z,1.50
2023-08-17T06:22:39.048Z,1.65
2023-08-17T06:25:11.399Z,1.38
2023-08-17T06:27:40.201Z,1.02
2023-08-17T06:30:08.149Z,1.30
2023-08-17T06:32:35.373Z,1.50
2023-08-17T06:35:03.028Z,0.77
2023-08-17T06:37:33.465Z,0.98
2023-08-17T06:40:01.120Z,1.33
2023-08-17T06:42:28.611Z,1.23
2023-08-17T06:44:55.961Z,1.50
2023-08-17T06:47:23.227Z,0.80
2023-08-17T06:49:51.459Z,0.93
2023-08-17T06:52:21.362Z,0.85
2023-08-17T06:54:48.636Z,1.10
2023-08-17T06:57:16.160Z,0.88
2023-08-17T06:59:46.947Z,0.90
2023-08-17T07:02:14.814Z,0.70
2023-08-17T07:04:42.405Z,0.60
2023-08-17T07:07:10.081Z,0.70
2023-08-17T07:09:37.398Z,0.70
2023-08-17T07:12:04.928Z,0.60
2023-08-17T07:14:32.372Z,0.50
2023-08-17T07:16:59.950Z,0.60
2023-08-17T07:19:52.098Z,0.60
2023-08-17T07:22:15.002Z,0.68
2023-08-17T07:24:44.496Z,0.93
2023-08-17T07:27:12.086Z,0.60
2023-08-17T07:29:40.527Z,1.00
2023-08-17T07:32:08.690Z,0.70
2023-08-17T07:34:40.860Z,0.63
2023-08-17T07:37:08.658Z,0.80
2023-08-17T07:39:36.312Z,0.77
2023-08-17T07:42:04.203Z,0.80
2023-08-17T07:44:32.855Z,0.90
2023-08-17T07:47:02.990Z,0.85
2023-08-17T07:49:33.090Z,1.10
2023-08-17T07:52:02.381Z,0.70
2023-08-17T07:54:29.804Z,0.80
2023-08-17T07:56:59.613Z,0.77
2023-08-17T07:59:27.022Z,0.68
2023-08-17T08:01:54.334Z,0.55
2023-08-17T08:04:21.920Z,0.60
2023-08-17T08:06:49.289Z,0.82
2023-08-17T08:09:16.778Z,0.68
2023-08-17T08:11:44.314Z,0.65
2023-08-17T08:14:12.217Z,0.73
2023-08-17T08:16:40.731Z,0.70
2023-08-17T08:19:13.378Z,0.55
2023-08-17T08:21:40.852Z,0.50
2023-08-17T08:24:17.603Z,0.77
2023-08-17T08:26:49.737Z,0.50
2023-08-17T08:29:17.301Z,0.50
2023-08-17T08:31:45.126Z,0.75
2023-08-17T08:34:12.849Z,0.63
2023-08-17T08:36:40.145Z,0.60
2023-08-17T08:39:07.559Z,0.43
2023-08-17T08:41:35.192Z,0.63
2023-08-17T08:44:02.450Z,0.68
2023-08-17T08:46:33.772Z,0.40
2023-08-17T08:49:01.008Z,0.77
2023-08-17T08:51:34.466Z,0.75
2023-08-17T08:54:06.555Z,0.60
2023-08-17T08:56:34.710Z,0.70
2023-08-17T08:59:04.205Z,0.75
2023-08-17T09:01:32.985Z,0.77
2023-08-17T09:04:01.865Z,0.60
2023-08-17T09:06:29.020Z,0.75
2023-08-17T09:08:56.879Z,1.00
2023-08-17T09:11:24.048Z,0.70
2023-08-17T09:13:53.803Z,0.65
2023-08-17T09:16:23.004Z,0.70
2023-08-17T09:18:55.052Z,0.80
2023-08-17T09:21:24.000Z,0.68
2023-08-17T09:23:59.618Z,0.75
2023-08-17T09:26:27.612Z,0.60
2023-08-17T09:28:55.471Z,0.68
2023-08-17T09:31:23.163Z,0.63
2023-08-17T09:33:51.581Z,0.90
2023-08-17T09:36:24.972Z,0.90
2023-08-17T09:38:52.845Z,1.02
2023-08-17T09:41:20.470Z,0.80
2023-08-17T09:43:48.107Z,0.60
2023-08-17T09:46:16.139Z,1.45
2023-08-17T09:48:46.688Z,1.00
2023-08-17T09:51:16.948Z,0.77
2023-08-17T09:53:44.373Z,0.98
2023-08-17T09:56:17.791Z,0.85
2023-08-17T09:58:45.609Z,1.00
2023-08-17T10:01:14.673Z,0.85
2023-08-17T10:03:44.866Z,1.00
2023-08-17T10:06:13.722Z,0.60
2023-08-17T10:08:44.597Z,1.05
2023-08-17T10:11:12.333Z,0.80
2023-08-17T10:13:45.016Z,0.90
2023-08-17T10:16:21.169Z,0.70
2023-08-17T10:18:57.312Z,0.50
2023-08-17T10:21:44.772Z,0.70
2023-08-17T10:24:13.654Z,1.02
2023-08-17T10:26:41.231Z,0.90
2023-08-17T10:29:15.369Z,0.98
2023-08-17T10:31:48.519Z,1.00
2023-08-17T10:34:16.620Z,1.17
2023-08-17T10:36:44.644Z,1.00
2023-08-17T10:39:28.711Z,1.60
2023-08-17T10:41:57.429Z,1.20
2023-08-17T10:44:43.520Z,1.02
2023-08-17T10:47:24.195Z,0.82
2023-08-17T10:50:01.545Z,0.90
2023-08-17T10:52:29.723Z,1.20
2023-08-17T10:54:57.526Z,0.80
2023-08-17T10:57:37.891Z,1.23
2023-08-17T11:00:11.930Z,1.10
2023-08-17T11:02:40.049Z,1.00
2023-08-17T11:05:08.289Z,1.00
2023-08-17T11:07:45.863Z,1.10
2023-08-17T11:10:21.992Z,0.80
2023-08-17T11:12:53.424Z,1.00
2023-08-17T11:15:20.994Z,0.75
2023-08-17T11:17:48.238Z,0.77
2023-08-17T11:20:15.713Z,0.80
2023-08-17T11:22:43.026Z,1.30
2023-08-17T11:25:10.233Z,0.88
2023-08-17T11:27:39.163Z,0.93
2023-08-17T11:30:06.958Z,1.10
2023-08-17T11:32:34.143Z,1.25
2023-08-17T11:35:01.348Z,1.00
2023-08-17T11:37:28.563Z,1.25
2023-08-17T11:39:55.839Z,0.90
2023-08-17T11:42:23.859Z,1.30
2023-08-17T11:44:51.029Z,0.82
2023-08-17T11:47:18.281Z,1.02
2023-08-17T11:49:49.172Z,1.10
2023-08-17T11:52:17.137Z,1.00
2023-08-17T11:54:44.296Z,1.27
2023-08-17T11:57:11.645Z,1.40
2023-08-17T11:59:39.014Z,1.30
2023-08-17T12:02:06.393Z,1.17
2023-08-17T12:04:34.868Z,1.00
2023-08-17T12:07:02.153Z,1.20
2023-08-17T12:09:29.319Z,1.27
2023-08-17T12:12:01.163Z,1.33
2023-08-17T12:14:29.233Z,1.23
2023-08-17T12:16:57.377Z,1.33
2023-08-17T12:19:26.697Z,1.50
2023-08-17T12:21:54.155Z,0.90
2023-08-17T12:24:21.429Z,0.95
2023-08-17T12:26:48.786Z,0.95
2023-08-17T12:29:15.991Z,0.98
2023-08-17T12:31:43.274Z,1.15
2023-08-17T12:34:10.547Z,1.48
2023-08-17T12:36:38.737Z,1.23
2023-08-17T12:39:06.847Z,1.20
2023-08-17T12:41:34.069Z,1.33
2023-08-17T12:44:02.180Z,1.40
2023-08-17T12:46:33.813Z,1.50
2023-08-17T12:49:01.239Z,1.30
2023-08-17T12:51:28.394Z,1.30
2023-08-17T12:53:55.782Z,1.15
2023-08-17T12:56:23.003Z,1.63
2023-08-17T12:58:50.222Z,1.42
2023-08-17T13:01:17.770Z,1.80
2023-08-17T13:03:44.934Z,1.35
2023-08-17T13:06:12.159Z,1.70
2023-08-17T13:08:39.299Z,1.58
2023-08-17T13:11:06.535Z,1.35
2023-08-17T13:13:33.733Z,1.10
2023-08-17T13:16:00.893Z,1.15
2023-08-17T13:18:29.707Z,1.20
2023-08-17T13:20:56.883Z,1.20
2023-08-17T13:23:24.133Z,1.20
2023-08-17T13:25:51.336Z,1.60
2023-08-17T13:28:18.523Z,1.48
2023-08-17T13:30:45.793Z,1.33
2023-08-17T13:33:13.597Z,1.30
2023-08-17T13:35:40.853Z,1.40
2023-08-17T13:38:08.016Z,1.95
2023-08-17T13:40:35.809Z,2.05
2023-08-17T13:43:04.185Z,1.25
2023-08-17T13:45:31.351Z,2.00
2023-08-17T13:47:58.583Z,2.03
2023-08-17T13:50:25.837Z,1.70
2023-08-17T13:52:53.081Z,1.70
2023-08-17T13:55:20.244Z,1.80
2023-08-17T13:57:48.302Z,1.58
2023-08-17T14:00:15.955Z,1.80
2023-08-17T14:02:43.189Z,1.60
2023-08-17T14:05:10.447Z,1.58
2023-08-17T14:07:37.667Z,1.40
2023-08-17T14:10:10.512Z,1.70
2023-08-17T14:12:39.532Z,1.42
2023-08-17T14:15:07.113Z,1.40
2023-08-17T14:17:34.312Z,1.67
2023-08-17T14:20:01.463Z,1.65
2023-08-17T14:22:28.894Z,1.67
2023-08-17T14:24:56.361Z,1.27
2023-08-17T14:27:23.699Z,1.55
2023-08-17T14:29:50.863Z,1.67
2023-08-17T14:32:18.051Z,1.60
2023-08-17T14:34:45.255Z,1.10
2023-08-17T14:37:12.377Z,1.55
2023-08-17T14:39:39.564Z,1.60
2023-08-17T14:42:06.839Z,1.80
2023-08-17T14:44:33.987Z,1.63
2023-08-17T14:47:01.145Z,1.60
2023-08-17T14:49:28.308Z,1.52
2023-08-17T14:51:55.534Z,1.98
2023-08-17T14:54:22.640Z,1.52
2023-08-17T14:56:49.923Z,2.38
2023-08-17T14:59:17.058Z,1.80
2023-08-17T15:01:44.213Z,1.83
2023-08-17T15:04:11.391Z,1.90
2023-08-17T15:06:42.481Z,2.08
2023-08-17T15:09:10.327Z,2.05
2023-08-17T15:11:37.768Z,1.80
2023-08-17T15:14:05.147Z,2.03
2023-08-17T15:16:32.514Z,1.92
2023-08-17T15:18:59.836Z,2.25
2023-08-17T15:21:27.211Z,2.15
2023-08-17T15:23:55.507Z,2.08
2023-08-17T15:26:22.649Z,1.80
2023-08-17T15:28:49.873Z,2.03
2023-08-17T15:31:17.563Z,1.55
2023-08-17T15:33:44.916Z,2.38
2023-08-17T15:36:12.115Z,2.92
2023-08-17T15:38:39.323Z,1.88
2023-08-17T15:41:06.586Z,1.70
2023-08-17T15:43:33.829Z,1.92
2023-08-17T15:46:01.100Z,2.10
2023-08-17T15:48:28.347Z,3.00
2023-08-17T15:50:55.557Z,2.28
2023-08-17T15:53:22.754Z,2.03
2023-08-17T15:55:49.967Z,2.80
2023-08-17T15:58:17.098Z,2.78
2023-08-17T16:00:44.228Z,2.13
2023-08-17T16:03:13.415Z,2.30
2023-08-17T16:05:40.851Z,1.80
2023-08-17T16:08:08.984Z,2.35
2023-08-17T16:10:36.829Z,2.13
2023-08-17T16:13:04.380Z,2.53
2023-08-17T16:15:31.651Z,2.55
2023-08-17T16:18:01.922Z,2.05
2023-08-17T16:20:31.384Z,2.30
2023-08-17T16:22:58.706Z,2.00
2023-08-17T16:25:29.637Z,1.98
2023-08-17T16:27:57.319Z,2.20
2023-08-17T16:30:24.807Z,1.60
2023-08-17T16:32:52.147Z,1.90
2023-08-17T16:35:19.477Z,2.30
2023-08-17T16:37:46.668Z,2.50
2023-08-17T16:40:27.795Z,2.20
2023-08-17T16:43:01.708Z,2.15
2023-08-17T16:45:28.995Z,1.95
2023-08-17T16:47:56.276Z,2.20
2023-08-17T16:50:23.438Z,1.88
2023-08-17T16:52:51.345Z,2.20
2023-08-17T16:55:18.622Z,1.90
2023-08-17T16:57:46.040Z,1.75
2023-08-17T17:00:13.567Z,2.40
2023-08-17T17:02:40.901Z,1.83
2023-08-17T17:05:08.415Z,2.08
2023-08-17T17:07:35.962Z,1.92
2023-08-17T17:10:03.322Z,1.92
2023-08-17T17:12:30.554Z,1.73
2023-08-17T17:14:57.837Z,1.90
2023-08-17T17:17:25.051Z,1.52
2023-08-17T17:19:52.404Z,1.60
2023-08-17T17:22:20.939Z,2.00
2023-08-17T17:24:48.093Z,1.60
2023-08-17T17:27:15.252Z,1.67
2023-08-17T17:29:42.464Z,1.90
2023-08-17T17:32:09.716Z,1.70
2023-08-17T17:34:36.904Z,1.60
2023-08-17T17:37:04.425Z,1.40
2023-08-17T17:39:31.713Z,1.30
2023-08-17T17:41:59.517Z,1.60
2023-08-17T17:44:26.744Z,1.60
2023-08-17T17:46:54.180Z,1.23
2023-08-17T17:49:21.789Z,1.80
2023-08-17T17:51:49.260Z,1.80
2023-08-17T17:54:16.532Z,1.60
2023-08-17T17:56:44.893Z,1.58
2023-08-17T17:59:12.610Z,1.50
2023-08-17T18:01:40.026Z,1.98
2023-08-17T18:04:07.500Z,1.50
2023-08-17T18:06:35.583Z,1.30
2023-08-17T18:09:03.032Z,1.40
2023-08-17T18:11:30.809Z,1.50
2023-08-17T18:13:58.027Z,1.35
2023-08-17T18:16:25.371Z,1.42
2023-08-17T18:18:52.633Z,1.45
2023-08-17T18:21:20.104Z,1.60
2023-08-17T18:23:47.361Z,1.42
2023-08-17T18:26:14.540Z,2.10
2023-08-17T18:28:41.866Z,1.92
2023-08-17T18:31:09.800Z,1.73
2023-08-17T18:33:37.120Z,2.03
2023-08-17T18:36:04.388Z,2.00
2023-08-17T18:38:31.636Z,1.73
2023-08-17T18:41:07.956Z,1.73
2023-08-17T18:43:35.601Z,1.35
2023-08-17T18:46:02.886Z,1.92
2023-08-17T18:48:30.087Z,1.98
2023-08-17T18:50:58.281Z,2.10
2023-08-17T18:53:25.590Z,1.95
2023-08-17T18:55:52.812Z,2.08
2023-08-17T18:58:21.439Z,2.15
2023-08-17T19:00:48.656Z,2.33
2023-08-17T19:03:15.963Z,2.40
2023-08-17T19:05:43.363Z,2.38
2023-08-17T19:08:10.590Z,2.25
2023-08-17T19:10:37.766Z,2.53
2023-08-17T19:13:05.007Z,2.20
2023-08-17T19:15:32.376Z,2.28
2023-08-17T19:17:59.619Z,2.63
2023-08-17T19:20:26.813Z,2.60
2023-08-17T19:22:56.321Z,2.30
2023-08-17T19:25:24.393Z,2.30
2023-08-17T19:27:51.594Z,1.58
2023-08-17T19:30:19.195Z,1.90
2023-08-17T19:32:46.606Z,1.55
2023-08-17T19:35:15.849Z,1.60
2023-08-17T19:37:43.627Z,1.67
2023-08-17T19:40:11.037Z,1.20
2023-08-17T19:42:38.460Z,1.17
2023-08-17T19:45:05.706Z,1.35
2023-08-17T19:47:32.919Z,1.10
2023-08-17T19:50:00.173Z,1.20
2023-08-17T19:52:27.520Z,0.80
2023-08-17T19:54:54.649Z,1.02
2023-08-17T19:57:21.814Z,0.88
2023-08-17T19:59:49.234Z,0.93
2023-08-17T20:02:18.709Z,0.80
2023-08-17T20:04:46.397Z,1.10
2023-08-17T20:07:13.657Z,0.75
2023-08-17T20:09:40.877Z,0.85
2023-08-17T20:12:08.198Z,0.93
2023-08-17T20:14:36.208Z,1.02
2023-08-17T20:17:03.414Z,1.00
2023-08-17T20:19:33.585Z,0.70
2023-08-17T20:22:01.437Z,1.08
2023-08-17T20:24:28.736Z,0.88
2023-08-17T20:26:56.128Z,0.93
2023-08-17T20:29:23.460Z,0.93
2023-08-17T20:31:51.115Z,0.90
2023-08-17T20:34:18.417Z,1.00
2023-08-17T20:36:45.539Z,0.73
2023-08-17T20:39:13.062Z,0.95
2023-08-17T20:41:40.780Z,0.80
2023-08-17T20:44:08.013Z,0.70
2023-08-17T20:46:35.501Z,0.85
2023-08-17T20:49:05.470Z,0.80
2023-08-17T20:51:32.722Z,1.10
2023-08-17T20:53:59.948Z,1.00
2023-08-17T20:56:27.132Z,1.00
2023-08-17T20:58:54.290Z,1.02
2023-08-17T21:01:21.804Z,1.10
2023-08-17T21:03:49.190Z,0.90
2023-08-17T21:06:16.470Z,1.17
2023-08-17T21:08:44.496Z,1.20
2023-08-17T21:11:12.160Z,1.63
2023-08-17T21:13:39.492Z,1.33
2023-08-17T21:16:07.218Z,1.25
2023-08-17T21:18:34.611Z,1.40
2023-08-17T21:21:02.394Z,1.20
2023-08-17T21:23:31.692Z,1.60
2023-08-17T21:26:00.048Z,1.45
2023-08-17T21:28:27.484Z,2.00
2023-08-17T21:31:01.510Z,1.60
2023-08-17T21:33:28.883Z,1.60
2023-08-17T21:35:57.839Z,2.13
2023-08-17T21:38:24.947Z,2.10
2023-08-17T21:41:01.625Z,1.88
2023-08-17T21:43:29.442Z,1.92
2023-08-17T21:46:00.008Z,2.50
2023-08-17T21:48:27.514Z,2.25
2023-08-17T21:50:54.700Z,2.72
2023-08-17T21:53:22.463Z,2.50
2023-08-17T21:55:50.526Z,2.90
2023-08-17T21:58:18.773Z,2.90
2023-08-17T22:00:46.747Z,3.30
2023-08-17T22:03:14.469Z,2.63
2023-08-17T22:05:41.851Z,3.30
2023-08-17T22:08:08.993Z,3.05
2023-08-17T22:10:36.167Z,3.15
2023-08-17T22:13:03.339Z,2.67
2023-08-17T22:15:30.488Z,3.30
2023-08-17T22:17:57.960Z,3.28
2023-08-17T22:20:25.200Z,3.10
2023-08-17T22:22:52.330Z,3.67
2023-08-17T22:25:19.521Z,3.58
2023-08-17T22:27:46.863Z,4.68
2023-08-17T22:30:14.172Z,4.20
2023-08-17T22:32:41.374Z,4.80
2023-08-17T22:35:11.396Z,4.40
2023-08-17T22:37:38.841Z,4.47
2023-08-17T22:40:07.347Z,4.88
2023-08-17T22:42:34.620Z,4.57
2023-08-17T22:45:01.785Z,4.97
2023-08-17T22:47:29.280Z,4.50
2023-08-17T22:49:56.716Z,4.55
2023-08-17T22:52:23.942Z,4.22
2023-08-17T22:54:51.069Z,4.20
2023-08-17T22:57:18.244Z,3.97
2023-08-17T22:59:45.476Z,5.03
2023-08-17T23:02:12.695Z,4.20
2023-08-17T23:04:39.847Z,4.13
2023-08-17T23:07:07.005Z,4.25
2023-08-17T23:09:36.693Z,3.83
2023-08-17T23:12:07.578Z,3.80
2023-08-17T23:14:35.865Z,4.10
2023-08-17T23:17:03.178Z,3.60
2023-08-17T23:19:30.354Z,3.75
2023-08-17T23:21:57.451Z,4.00
2023-08-17T23:24:24.571Z,4.05
2023-08-17T23:26:51.672Z,3.00
2023-08-17T23:29:18.854Z,3.30
2023-08-17T23:31:46.129Z,3.17
2023-08-17T23:34:13.303Z,3.38
2023-08-17T23:36:40.476Z,3.53
2023-08-17T23:39:07.810Z,3.05
2023-08-17T23:41:35.056Z,3.17
2023-08-17T23:44:02.328Z,3.10
2023-08-17T23:46:29.530Z,2.80
2023-08-17T23:48:56.839Z,2.60
2023-08-17T23:51:24.098Z,2.92
2023-08-17T23:53:51.254Z,2.47
2023-08-17T23:56:18.484Z,2.58
2023-08-17T23:58:49.444Z,2.65
